sensor_id;sensor_type;location;lat;lon;timestamp;temperature;humidity
5346;DHT22;2695;49.444;11.054;2023-11-18T00:01:10;7.10;99.90
5346;DHT22;2695;49.444;11.054;2023-11-18T00:03:38;7.10;99.90
5346;DHT22;2695;49.444;11.054;2023-11-18T00:06:07;7.20;99.90
5346;DHT22;2695;49.444;11.054;2023-11-18T00:08:35;7.20;99.90
5346;DHT22;2695;49.444;11.054;2023-11-18T00:11:03;7.20;99.90
5346;DHT22;2695;49.444;11.054;2023-11-18T00:13:33;7.30;99.90
5346;DHT22;2695;49.444;11.054;2023-11-18T00:16:01;7.20;99.90
5346;DHT22;2695;49.444;11.054;2023-11-18T00:18:30;7.20;99.90
5346;DHT22;2695;49.444;11.054;2023-11-18T00:20:59;7.20;99.90
5346;DHT22;2695;49.444;11.054;2023-11-18T00:23:26;7.30;99.90
5346;DHT22;2695;49.444;11.054;2023-11-18T00:25:55;7.20;99.90
5346;DHT22;2695;49.444;11.054;2023-11-18T00:28:24;7.40;99.90
5346;DHT22;2695;49.444;11.054;2023-11-18T00:30:53;7.10;99.90
5346;DHT22;2695;49.444;11.054;2023-11-18T00:33:22;7.20;99.90
5346;DHT22;2695;49.444;11.054;2023-11-18T00:35:50;7.10;99.90
5346;DHT22;2695;49.444;11.054;2023-11-18T00:38:18;7.10;99.90
5346;DHT22;2695;49.444;11.054;2023-11-18T00:40:46;7.10;99.90
5346;DHT22;2695;49.444;11.054;2023-11-18T00:43:15;7.20;99.90
5346;DHT22;2695;49.444;11.054;2023-11-18T00:45:43;7.20;99.90
5346;DHT22;2695;49.444;11.054;2023-11-18T00:48:14;7.10;99.90
5346;DHT22;2695;49.444;11.054;2023-11-18T00:50:42;7.10;99.90
5346;DHT22;2695;49.444;11.054;2023-11-18T00:53:10;7.00;99.90
5346;DHT22;2695;49.444;11.054;2023-11-18T00:55:38;6.90;99.90
5346;DHT22;2695;49.444;11.054;2023-11-18T00:58:08;6.90;99.90
5346;DHT22;2695;49.444;11.054;2023-11-18T01:00:36;6.90;99.90
5346;DHT22;2695;49.444;11.054;2023-11-18T01:03:04;6.90;99.90
5346;DHT22;2695;49.444;11.054;2023-11-18T01:05:34;7.00;99.90
5346;DHT22;2695;49.444;11.054;2023-11-18T01:08:02;7.00;99.90
5346;DHT22;2695;49.444;11.054;2023-11-18T01:10:30;7.00;99.90
5346;DHT22;2695;49.444;11.054;2023-11-18T01:12:58;7.00;99.90
5346;DHT22;2695;49.444;11.054;2023-11-18T01:15:26;7.00;99.90
5346;DHT22;2695;49.444;11.054;2023-11-18T01:17:54;7.00;99.90
5346;DHT22;2695;49.444;11.054;2023-11-18T01:20:22;7.00;99.90
5346;DHT22;2695;49.444;11.054;2023-11-18T01:22:51;7.00;99.90
5346;DHT22;2695;49.444;11.054;2023-11-18T01:25:20;6.80;99.90
5346;DHT22;2695;49.444;11.054;2023-11-18T01:27:47;6.70;99.90
5346;DHT22;2695;49.444;11.054;2023-11-18T01:30:15;6.70;99.90
5346;DHT22;2695;49.444;11.054;2023-11-18T01:32:43;6.50;99.90
5346;DHT22;2695;49.444;11.054;2023-11-18T01:35:13;6.40;99.90
5346;DHT22;2695;49.444;11.054;2023-11-18T01:37:41;6.30;99.90
5346;DHT22;2695;49.444;11.054;2023-11-18T01:40:11;6.20;99.90
5346;DHT22;2695;49.444;11.054;2023-11-18T01:42:42;6.20;99.90
5346;DHT22;2695;49.444;11.054;2023-11-18T01:45:10;6.10;99.90
5346;DHT22;2695;49.444;11.054;2023-11-18T01:47:39;6.10;99.90
5346;DHT22;2695;49.444;11.054;2023-11-18T01:50:10;6.20;99.90
5346;DHT22;2695;49.444;11.054;2023-11-18T01:52:41;6.20;99.90
5346;DHT22;2695;49.444;11.054;2023-11-18T01:55:14;6.30;99.90
5346;DHT22;2695;49.444;11.054;2023-11-18T01:57:43;6.30;99.90
5346;DHT22;2695;49.444;11.054;2023-11-18T02:00:13;6.30;99.90
5346;DHT22;2695;49.444;11.054;2023-11-18T02:02:45;6.30;99.90
5346;DHT22;2695;49.444;11.054;2023-11-18T02:05:13;6.30;99.90
5346;DHT22;2695;49.444;11.054;2023-11-18T02:07:42;6.30;99.90
5346;DHT22;2695;49.444;11.054;2023-11-18T02:10:12;6.20;99.90
5346;DHT22;2695;49.444;11.054;2023-11-18T02:12:46;6.30;99.90
5346;DHT22;2695;49.444;11.054;2023-11-18T02:15:16;6.30;99.90
5346;DHT22;2695;49.444;11.054;2023-11-18T02:17:45;6.30;99.90
5346;DHT22;2695;49.444;11.054;2023-11-18T02:20:14;6.30;99.90
5346;DHT22;2695;49.444;11.054;2023-11-18T02:22:44;6.30;99.90
5346;DHT22;2695;49.444;11.054;2023-11-18T02:25:15;6.20;99.90
5346;DHT22;2695;49.444;11.054;2023-11-18T02:27:46;6.20;99.90
5346;DHT22;2695;49.444;11.054;2023-11-18T02:30:14;6.20;99.90
5346;DHT22;2695;49.444;11.054;2023-11-18T02:32:48;6.10;99.90
5346;DHT22;2695;49.444;11.054;2023-11-18T02:35:22;6.10;99.90
5346;DHT22;2695;49.444;11.054;2023-11-18T02:37:54;6.10;99.90
5346;DHT22;2695;49.444;11.054;2023-11-18T02:40:27;6.20;99.90
5346;DHT22;2695;49.444;11.054;2023-11-18T02:42:59;6.20;99.90
5346;DHT22;2695;49.444;11.054;2023-11-18T02:45:28;6.30;99.90
5346;DHT22;2695;49.444;11.054;2023-11-18T02:47:58;6.30;99.90
5346;DHT22;2695;49.444;11.054;2023-11-18T02:50:27;6.20;99.90
5346;DHT22;2695;49.444;11.054;2023-11-18T02:52:56;6.20;99.90
5346;DHT22;2695;49.444;11.054;2023-11-18T02:55:23;6.20;99.90
5346;DHT22;2695;49.444;11.054;2023-11-18T02:57:52;6.20;99.90
5346;DHT22;2695;49.444;11.054;2023-11-18T03:00:22;6.20;99.90
5346;DHT22;2695;49.444;11.054;2023-11-18T03:02:50;6.20;99.90
5346;DHT22;2695;49.444;11.054;2023-11-18T03:05:19;6.10;99.90
5346;DHT22;2695;49.444;11.054;2023-11-18T03:07:48;6.10;99.90
5346;DHT22;2695;49.444;11.054;2023-11-18T03:10:18;6.10;99.90
5346;DHT22;2695;49.444;11.054;2023-11-18T03:12:49;6.10;99.90
5346;DHT22;2695;49.444;11.054;2023-11-18T03:15:17;6.00;99.90
5346;DHT22;2695;49.444;11.054;2023-11-18T03:17:48;5.80;99.90
5346;DHT22;2695;49.444;11.054;2023-11-18T03:20:18;5.70;99.90
5346;DHT22;2695;49.444;11.054;2023-11-18T03:22:47;5.70;99.90
5346;DHT22;2695;49.444;11.054;2023-11-18T03:25:15;5.60;99.90
5346;DHT22;2695;49.444;11.054;2023-11-18T03:27:43;5.50;99.90
5346;DHT22;2695;49.444;11.054;2023-11-18T03:30:12;5.50;99.90
5346;DHT22;2695;49.444;11.054;2023-11-18T03:32:40;5.40;99.90
5346;DHT22;2695;49.444;11.054;2023-11-18T03:35:09;5.40;99.90
5346;DHT22;2695;49.444;11.054;2023-11-18T03:37:38;5.40;99.90
5346;DHT22;2695;49.444;11.054;2023-11-18T03:40:09;5.40;99.90
5346;DHT22;2695;49.444;11.054;2023-11-18T03:42:38;5.30;99.90
5346;DHT22;2695;49.444;11.054;2023-11-18T03:45:07;5.20;99.90
5346;DHT22;2695;49.444;11.054;2023-11-18T03:47:37;5.20;99.90
5346;DHT22;2695;49.444;11.054;2023-11-18T03:50:06;5.10;99.90
5346;DHT22;2695;49.444;11.054;2023-11-18T03:52:37;5.10;99.90
5346;DHT22;2695;49.444;11.054;2023-11-18T03:55:06;5.00;99.90
5346;DHT22;2695;49.444;11.054;2023-11-18T03:57:34;4.90;99.90
5346;DHT22;2695;49.444;11.054;2023-11-18T04:00:03;4.90;99.90
5346;DHT22;2695;49.444;11.054;2023-11-18T04:02:31;4.90;99.90
5346;DHT22;2695;49.444;11.054;2023-11-18T04:05:01;5.00;99.90
5346;DHT22;2695;49.444;11.054;2023-11-18T04:07:30;5.10;99.90
5346;DHT22;2695;49.444;11.054;2023-11-18T04:09:58;5.20;99.90
5346;DHT22;2695;49.444;11.054;2023-11-18T04:12:27;5.30;99.90
5346;DHT22;2695;49.444;11.054;2023-11-18T04:14:54;5.40;99.90
5346;DHT22;2695;49.444;11.054;2023-11-18T04:17:22;5.50;99.90
5346;DHT22;2695;49.444;11.054;2023-11-18T04:19:54;5.70;99.90
5346;DHT22;2695;49.444;11.054;2023-11-18T04:22:22;5.50;99.90
5346;DHT22;2695;49.444;11.054;2023-11-18T04:24:50;5.50;99.90
5346;DHT22;2695;49.444;11.054;2023-11-18T04:27:20;5.50;99.90
5346;DHT22;2695;49.444;11.054;2023-11-18T04:29:48;5.50;99.90
5346;DHT22;2695;49.444;11.054;2023-11-18T04:32:16;5.50;99.90
5346;DHT22;2695;49.444;11.054;2023-11-18T04:34:44;5.40;99.90
5346;DHT22;2695;49.444;11.054;2023-11-18T04:37:12;5.40;99.90
5346;DHT22;2695;49.444;11.054;2023-11-18T04:39:39;5.40;99.90
5346;DHT22;2695;49.444;11.054;2023-11-18T04:42:07;5.40;99.90
5346;DHT22;2695;49.444;11.054;2023-11-18T04:44:36;5.50;99.90
5346;DHT22;2695;49.444;11.054;2023-11-18T04:47:05;5.50;99.90
5346;DHT22;2695;49.444;11.054;2023-11-18T04:49:33;5.50;99.90
5346;DHT22;2695;49.444;11.054;2023-11-18T04:52:01;5.40;99.90
5346;DHT22;2695;49.444;11.054;2023-11-18T04:54:29;5.30;99.90
5346;DHT22;2695;49.444;11.054;2023-11-18T04:56:57;5.20;99.90
5346;DHT22;2695;49.444;11.054;2023-11-18T04:59:25;5.20;99.90
5346;DHT22;2695;49.444;11.054;2023-11-18T05:01:55;5.20;99.90
5346;DHT22;2695;49.444;11.054;2023-11-18T05:04:23;5.00;99.90
5346;DHT22;2695;49.444;11.054;2023-11-18T05:06:50;5.00;99.90
5346;DHT22;2695;49.444;11.054;2023-11-18T05:09:19;4.90;99.90
5346;DHT22;2695;49.444;11.054;2023-11-18T05:11:47;4.90;99.90
5346;DHT22;2695;49.444;11.054;2023-11-18T05:14:15;4.80;99.90
5346;DHT22;2695;49.444;11.054;2023-11-18T05:16:44;4.70;99.90
5346;DHT22;2695;49.444;11.054;2023-11-18T05:19:13;4.60;99.90
5346;DHT22;2695;49.444;11.054;2023-11-18T05:21:41;4.60;99.90
5346;DHT22;2695;49.444;11.054;2023-11-18T05:24:09;4.50;99.90
5346;DHT22;2695;49.444;11.054;2023-11-18T05:26:37;4.40;99.90
5346;DHT22;2695;49.444;11.054;2023-11-18T05:29:04;4.40;99.90
5346;DHT22;2695;49.444;11.054;2023-11-18T05:31:32;4.30;99.90
5346;DHT22;2695;49.444;11.054;2023-11-18T05:34:00;4.30;99.90
5346;DHT22;2695;49.444;11.054;2023-11-18T05:36:31;4.40;99.90
5346;DHT22;2695;49.444;11.054;2023-11-18T05:39:04;4.40;99.90
5346;DHT22;2695;49.444;11.054;2023-11-18T05:41:33;4.60;99.90
5346;DHT22;2695;49.444;11.054;2023-11-18T05:44:02;4.70;99.90
5346;DHT22;2695;49.444;11.054;2023-11-18T05:46:30;4.70;99.90
5346;DHT22;2695;49.444;11.054;2023-11-18T05:49:02;4.80;99.90
5346;DHT22;2695;49.444;11.054;2023-11-18T05:51:33;4.90;99.90
5346;DHT22;2695;49.444;11.054;2023-11-18T05:54:01;4.90;99.90
5346;DHT22;2695;49.444;11.054;2023-11-18T05:56:29;4.90;99.90
5346;DHT22;2695;49.444;11.054;2023-11-18T05:58:58;4.90;99.90
5346;DHT22;2695;49.444;11.054;2023-11-18T06:01:29;4.80;99.90
5346;DHT22;2695;49.444;11.054;2023-11-18T06:03:58;4.70;99.90
5346;DHT22;2695;49.444;11.054;2023-11-18T06:06:27;4.70;99.90
5346;DHT22;2695;49.444;11.054;2023-11-18T06:08:56;4.60;99.90
5346;DHT22;2695;49.444;11.054;2023-11-18T06:11:25;4.60;99.90
5346;DHT22;2695;49.444;11.054;2023-11-18T06:14:02;4.70;99.90
5346;DHT22;2695;49.444;11.054;2023-11-18T06:16:30;4.80;99.90
5346;DHT22;2695;49.444;11.054;2023-11-18T06:18:58;4.90;99.90
5346;DHT22;2695;49.444;11.054;2023-11-18T06:21:27;5.00;99.90
5346;DHT22;2695;49.444;11.054;2023-11-18T06:23:59;5.00;99.90
5346;DHT22;2695;49.444;11.054;2023-11-18T06:26:27;5.00;99.90
5346;DHT22;2695;49.444;11.054;2023-11-18T06:28:56;5.00;99.90
5346;DHT22;2695;49.444;11.054;2023-11-18T06:31:24;5.10;99.90
5346;DHT22;2695;49.444;11.054;2023-11-18T06:33:52;5.10;99.90
5346;DHT22;2695;49.444;11.054;2023-11-18T06:36:21;5.20;99.90
5346;DHT22;2695;49.444;11.054;2023-11-18T06:38:50;5.10;99.90
5346;DHT22;2695;49.444;11.054;2023-11-18T06:41:21;5.10;99.90
5346;DHT22;2695;49.444;11.054;2023-11-18T06:43:52;5.10;99.90
5346;DHT22;2695;49.444;11.054;2023-11-18T06:46:28;5.00;99.90
5346;DHT22;2695;49.444;11.054;2023-11-18T06:48:58;4.90;99.90
5346;DHT22;2695;49.444;11.054;2023-11-18T06:51:31;4.80;99.90
5346;DHT22;2695;49.444;11.054;2023-11-18T06:54:02;4.80;99.90
5346;DHT22;2695;49.444;11.054;2023-11-18T06:56:37;4.70;99.90
5346;DHT22;2695;49.444;11.054;2023-11-18T06:59:05;4.70;99.90
5346;DHT22;2695;49.444;11.054;2023-11-18T07:01:34;4.70;99.90
5346;DHT22;2695;49.444;11.054;2023-11-18T07:04:03;4.70;99.90
5346;DHT22;2695;49.444;11.054;2023-11-18T07:06:35;4.70;99.90
5346;DHT22;2695;49.444;11.054;2023-11-18T07:09:05;4.80;99.90
5346;DHT22;2695;49.444;11.054;2023-11-18T07:11:40;4.70;99.90
5346;DHT22;2695;49.444;11.054;2023-11-18T07:14:08;4.70;99.90
5346;DHT22;2695;49.444;11.054;2023-11-18T07:16:38;4.80;99.90
5346;DHT22;2695;49.444;11.054;2023-11-18T07:19:08;4.60;99.90
5346;DHT22;2695;49.444;11.054;2023-11-18T07:21:41;4.50;99.90
5346;DHT22;2695;49.444;11.054;2023-11-18T07:24:09;4.60;99.90
5346;DHT22;2695;49.444;11.054;2023-11-18T07:26:37;4.60;99.90
5346;DHT22;2695;49.444;11.054;2023-11-18T07:29:07;4.70;99.90
5346;DHT22;2695;49.444;11.054;2023-11-18T07:31:35;4.80;99.90
5346;DHT22;2695;49.444;11.054;2023-11-18T07:34:03;4.90;99.90
5346;DHT22;2695;49.444;11.054;2023-11-18T07:36:32;5.00;99.90
5346;DHT22;2695;49.444;11.054;2023-11-18T07:39:01;5.10;99.90
5346;DHT22;2695;49.444;11.054;2023-11-18T07:41:31;5.40;99.90
5346;DHT22;2695;49.444;11.054;2023-11-18T07:44:00;5.50;99.90
5346;DHT22;2695;49.444;11.054;2023-11-18T07:46:30;5.60;99.90
5346;DHT22;2695;49.444;11.054;2023-11-18T07:48:58;5.50;99.90
5346;DHT22;2695;49.444;11.054;2023-11-18T07:51:28;5.50;99.90
5346;DHT22;2695;49.444;11.054;2023-11-18T07:53:56;5.70;99.90
5346;DHT22;2695;49.444;11.054;2023-11-18T07:56:25;5.60;99.90
5346;DHT22;2695;49.444;11.054;2023-11-18T07:58:53;5.70;99.90
5346;DHT22;2695;49.444;11.054;2023-11-18T08:01:21;5.70;99.90
5346;DHT22;2695;49.444;11.054;2023-11-18T08:03:51;5.50;99.90
5346;DHT22;2695;49.444;11.054;2023-11-18T08:06:20;5.80;99.90
5346;DHT22;2695;49.444;11.054;2023-11-18T08:08:48;6.10;99.90
5346;DHT22;2695;49.444;11.054;2023-11-18T08:11:16;6.40;99.90
5346;DHT22;2695;49.444;11.054;2023-11-18T08:13:44;6.80;99.90
5346;DHT22;2695;49.444;11.054;2023-11-18T08:16:12;6.90;99.90
5346;DHT22;2695;49.444;11.054;2023-11-18T08:18:41;7.10;99.90
5346;DHT22;2695;49.444;11.054;2023-11-18T08:21:10;7.20;99.90
5346;DHT22;2695;49.444;11.054;2023-11-18T08:23:39;7.10;99.90
5346;DHT22;2695;49.444;11.054;2023-11-18T08:26:07;7.00;99.90
5346;DHT22;2695;49.444;11.054;2023-11-18T08:28:36;6.80;99.90
5346;DHT22;2695;49.444;11.054;2023-11-18T08:31:04;6.90;99.90
5346;DHT22;2695;49.444;11.054;2023-11-18T08:33:33;6.80;99.90
5346;DHT22;2695;49.444;11.054;2023-11-18T08:36:01;6.70;99.90
5346;DHT22;2695;49.444;11.054;2023-11-18T08:38:31;6.70;99.90
5346;DHT22;2695;49.444;11.054;2023-11-18T08:40:58;6.60;99.90
5346;DHT22;2695;49.444;11.054;2023-11-18T08:43:27;6.80;99.90
5346;DHT22;2695;49.444;11.054;2023-11-18T08:45:55;6.80;99.90
5346;DHT22;2695;49.444;11.054;2023-11-18T08:48:23;6.90;99.90
5346;DHT22;2695;49.444;11.054;2023-11-18T08:50:51;6.80;99.90
5346;DHT22;2695;49.444;11.054;2023-11-18T08:53:19;6.80;99.90
5346;DHT22;2695;49.444;11.054;2023-11-18T08:55:54;6.70;99.90
5346;DHT22;2695;49.444;11.054;2023-11-18T08:58:23;6.60;99.90
5346;DHT22;2695;49.444;11.054;2023-11-18T09:00:56;6.50;99.90
5346;DHT22;2695;49.444;11.054;2023-11-18T09:03:33;6.60;99.90
5346;DHT22;2695;49.444;11.054;2023-11-18T09:06:05;6.70;99.90
5346;DHT22;2695;49.444;11.054;2023-11-18T09:08:46;6.60;99.90
5346;DHT22;2695;49.444;11.054;2023-11-18T09:11:22;6.70;99.90
5346;DHT22;2695;49.444;11.054;2023-11-18T09:13:51;7.10;99.90
5346;DHT22;2695;49.444;11.054;2023-11-18T09:16:21;7.60;99.90
5346;DHT22;2695;49.444;11.054;2023-11-18T09:18:53;7.90;99.90
5346;DHT22;2695;49.444;11.054;2023-11-18T09:21:23;8.00;99.90
5346;DHT22;2695;49.444;11.054;2023-11-18T09:23:56;8.10;99.90
5346;DHT22;2695;49.444;11.054;2023-11-18T09:26:26;8.10;99.90
5346;DHT22;2695;49.444;11.054;2023-11-18T09:28:57;8.20;99.90
5346;DHT22;2695;49.444;11.054;2023-11-18T09:31:28;8.30;99.90
5346;DHT22;2695;49.444;11.054;2023-11-18T09:33:58;8.50;99.90
5346;DHT22;2695;49.444;11.054;2023-11-18T09:36:26;8.60;99.90
5346;DHT22;2695;49.444;11.054;2023-11-18T09:38:55;8.60;99.90
5346;DHT22;2695;49.444;11.054;2023-11-18T09:41:23;8.60;99.90
5346;DHT22;2695;49.444;11.054;2023-11-18T09:43:56;8.60;99.90
5346;DHT22;2695;49.444;11.054;2023-11-18T09:46:29;8.70;99.90
5346;DHT22;2695;49.444;11.054;2023-11-18T09:49:06;8.80;99.90
5346;DHT22;2695;49.444;11.054;2023-11-18T09:51:43;8.90;99.90
5346;DHT22;2695;49.444;11.054;2023-11-18T09:54:19;8.80;99.90
5346;DHT22;2695;49.444;11.054;2023-11-18T09:56:59;9.00;99.90
5346;DHT22;2695;49.444;11.054;2023-11-18T09:59:42;9.40;99.90
5346;DHT22;2695;49.444;11.054;2023-11-18T10:02:14;9.80;99.90
5346;DHT22;2695;49.444;11.054;2023-11-18T10:04:46;10.00;99.90
5346;DHT22;2695;49.444;11.054;2023-11-18T10:07:25;10.00;99.90
5346;DHT22;2695;49.444;11.054;2023-11-18T10:09:55;10.00;99.90
5346;DHT22;2695;49.444;11.054;2023-11-18T10:12:25;9.90;99.90
5346;DHT22;2695;49.444;11.054;2023-11-18T10:14:55;9.80;99.90
5346;DHT22;2695;49.444;11.054;2023-11-18T10:17:24;9.80;99.90
5346;DHT22;2695;49.444;11.054;2023-11-18T10:19:53;9.80;99.90
5346;DHT22;2695;49.444;11.054;2023-11-18T10:22:24;10.10;99.90
5346;DHT22;2695;49.444;11.054;2023-11-18T10:24:53;10.50;99.90
5346;DHT22;2695;49.444;11.054;2023-11-18T10:27:23;10.90;99.90
5346;DHT22;2695;49.444;11.054;2023-11-18T10:29:56;11.50;99.90
5346;DHT22;2695;49.444;11.054;2023-11-18T10:32:25;12.40;99.90
5346;DHT22;2695;49.444;11.054;2023-11-18T10:34:55;13.30;99.90
5346;DHT22;2695;49.444;11.054;2023-11-18T10:37:23;14.30;99.90
5346;DHT22;2695;49.444;11.054;2023-11-18T10:39:51;15.00;99.90
5346;DHT22;2695;49.444;11.054;2023-11-18T10:42:19;15.50;99.90
5346;DHT22;2695;49.444;11.054;2023-11-18T10:44:56;15.50;99.90
5346;DHT22;2695;49.444;11.054;2023-11-18T10:47:25;15.00;99.90
5346;DHT22;2695;49.444;11.054;2023-11-18T10:49:54;14.30;99.90
5346;DHT22;2695;49.444;11.054;2023-11-18T10:52:24;13.70;99.90
5346;DHT22;2695;49.444;11.054;2023-11-18T10:54:52;13.10;99.90
5346;DHT22;2695;49.444;11.054;2023-11-18T10:57:22;12.70;99.90
5346;DHT22;2695;49.444;11.054;2023-11-18T11:00:01;12.40;99.90
5346;DHT22;2695;49.444;11.054;2023-11-18T11:02:31;12.40;99.90
5346;DHT22;2695;49.444;11.054;2023-11-18T11:05:02;12.40;99.90
5346;DHT22;2695;49.444;11.054;2023-11-18T11:07:32;12.50;99.90
5346;DHT22;2695;49.444;11.054;2023-11-18T11:10:00;12.50;99.90
5346;DHT22;2695;49.444;11.054;2023-11-18T11:12:35;12.40;99.90
5346;DHT22;2695;49.444;11.054;2023-11-18T11:15:09;12.40;99.90
5346;DHT22;2695;49.444;11.054;2023-11-18T11:17:51;12.50;99.90
5346;DHT22;2695;49.444;11.054;2023-11-18T11:20:23;12.50;99.90
5346;DHT22;2695;49.444;11.054;2023-11-18T11:23:01;12.80;99.90
5346;DHT22;2695;49.444;11.054;2023-11-18T11:25:41;12.80;99.90
5346;DHT22;2695;49.444;11.054;2023-11-18T11:28:16;12.60;99.90
5346;DHT22;2695;49.444;11.054;2023-11-18T11:30:57;12.40;99.90
5346;DHT22;2695;49.444;11.054;2023-11-18T11:33:32;12.10;99.90
5346;DHT22;2695;49.444;11.054;2023-11-18T11:36:09;12.00;99.90
5346;DHT22;2695;49.444;11.054;2023-11-18T11:38:39;11.80;99.90
5346;DHT22;2695;49.444;11.054;2023-11-18T11:41:14;11.60;99.90
5346;DHT22;2695;49.444;11.054;2023-11-18T11:43:47;11.60;99.90
5346;DHT22;2695;49.444;11.054;2023-11-18T11:46:17;11.40;99.90
5346;DHT22;2695;49.444;11.054;2023-11-18T11:48:50;11.40;99.90
5346;DHT22;2695;49.444;11.054;2023-11-18T11:51:24;11.50;99.90
5346;DHT22;2695;49.444;11.054;2023-11-18T11:54:01;11.60;99.90
5346;DHT22;2695;49.444;11.054;2023-11-18T11:56:42;11.60;99.90
5346;DHT22;2695;49.444;11.054;2023-11-18T11:59:10;11.60;99.90
5346;DHT22;2695;49.444;11.054;2023-11-18T12:01:40;11.70;99.90
5346;DHT22;2695;49.444;11.054;2023-11-18T12:04:15;11.70;99.90
5346;DHT22;2695;49.444;11.054;2023-11-18T12:06:50;11.80;99.90
5346;DHT22;2695;49.444;11.054;2023-11-18T12:09:38;11.90;99.90
5346;DHT22;2695;49.444;11.054;2023-11-18T12:12:14;12.00;99.90
5346;DHT22;2695;49.444;11.054;2023-11-18T12:14:49;12.00;99.90
5346;DHT22;2695;49.444;11.054;2023-11-18T12:17:20;12.10;99.90
5346;DHT22;2695;49.444;11.054;2023-11-18T12:19:55;12.20;99.90
5346;DHT22;2695;49.444;11.054;2023-11-18T12:22:26;12.20;99.90
5346;DHT22;2695;49.444;11.054;2023-11-18T12:25:30;12.00;99.90
5346;DHT22;2695;49.444;11.054;2023-11-18T12:28:09;11.80;99.90
5346;DHT22;2695;49.444;11.054;2023-11-18T12:30:41;11.70;99.90
5346;DHT22;2695;49.444;11.054;2023-11-18T12:34:01;11.60;99.90
5346;DHT22;2695;49.444;11.054;2023-11-18T12:40:02;11.40;99.90
5346;DHT22;2695;49.444;11.054;2023-11-18T12:42:58;11.20;99.90
5346;DHT22;2695;49.444;11.054;2023-11-18T12:45:43;11.10;99.90
5346;DHT22;2695;49.444;11.054;2023-11-18T12:48:14;11.00;99.90
5346;DHT22;2695;49.444;11.054;2023-11-18T12:50:44;11.00;99.90
5346;DHT22;2695;49.444;11.054;2023-11-18T12:53:13;11.00;99.90
5346;DHT22;2695;49.444;11.054;2023-11-18T12:55:45;11.10;99.90
5346;DHT22;2695;49.444;11.054;2023-11-18T12:58:14;11.00;99.90
5346;DHT22;2695;49.444;11.054;2023-11-18T13:00:44;11.10;99.90
5346;DHT22;2695;49.444;11.054;2023-11-18T13:03:13;11.10;99.90
5346;DHT22;2695;49.444;11.054;2023-11-18T13:05:43;11.00;99.90
5346;DHT22;2695;49.444;11.054;2023-11-18T13:08:13;10.90;99.90
5346;DHT22;2695;49.444;11.054;2023-11-18T13:10:42;11.00;99.90
5346;DHT22;2695;49.444;11.054;2023-11-18T13:13:11;10.90;99.90
5346;DHT22;2695;49.444;11.054;2023-11-18T13:15:42;10.90;99.90
5346;DHT22;2695;49.444;11.054;2023-11-18T13:18:10;10.80;99.90
5346;DHT22;2695;49.444;11.054;2023-11-18T13:20:39;10.60;99.90
5346;DHT22;2695;49.444;11.054;2023-11-18T13:23:10;10.50;99.90
5346;DHT22;2695;49.444;11.054;2023-11-18T13:25:39;10.60;99.90
5346;DHT22;2695;49.444;11.054;2023-11-18T13:28:08;10.50;99.90
5346;DHT22;2695;49.444;11.054;2023-11-18T13:30:37;10.50;99.90
5346;DHT22;2695;49.444;11.054;2023-11-18T13:33:07;10.50;99.90
5346;DHT22;2695;49.444;11.054;2023-11-18T13:35:35;10.40;99.90
5346;DHT22;2695;49.444;11.054;2023-11-18T13:38:04;10.20;99.90
5346;DHT22;2695;49.444;11.054;2023-11-18T13:40:43;10.20;99.90
5346;DHT22;2695;49.444;11.054;2023-11-18T13:43:11;10.10;99.90
5346;DHT22;2695;49.444;11.054;2023-11-18T13:45:40;10.10;99.90
5346;DHT22;2695;49.444;11.054;2023-11-18T13:48:11;10.10;99.90
5346;DHT22;2695;49.444;11.054;2023-11-18T13:50:40;10.20;99.90
5346;DHT22;2695;49.444;11.054;2023-11-18T13:53:10;10.00;99.90
5346;DHT22;2695;49.444;11.054;2023-11-18T13:55:40;10.00;99.90
5346;DHT22;2695;49.444;11.054;2023-11-18T13:58:10;10.10;99.90
5346;DHT22;2695;49.444;11.054;2023-11-18T14:00:38;9.90;99.90
5346;DHT22;2695;49.444;11.054;2023-11-18T14:03:08;9.90;99.90
5346;DHT22;2695;49.444;11.054;2023-11-18T14:05:38;9.80;99.90
5346;DHT22;2695;49.444;11.054;2023-11-18T14:08:06;9.70;99.90
5346;DHT22;2695;49.444;11.054;2023-11-18T14:10:37;9.60;99.90
5346;DHT22;2695;49.444;11.054;2023-11-18T14:13:08;9.40;99.90
5346;DHT22;2695;49.444;11.054;2023-11-18T14:15:41;9.30;99.90
5346;DHT22;2695;49.444;11.054;2023-11-18T14:18:11;9.30;99.90
5346;DHT22;2695;49.444;11.054;2023-11-18T14:20:41;9.20;99.90
5346;DHT22;2695;49.444;11.054;2023-11-18T14:23:09;9.20;99.90
5346;DHT22;2695;49.444;11.054;2023-11-18T14:25:38;9.20;99.90
5346;DHT22;2695;49.444;11.054;2023-11-18T14:28:06;9.20;99.90
5346;DHT22;2695;49.444;11.054;2023-11-18T14:30:35;9.20;99.90
5346;DHT22;2695;49.444;11.054;2023-11-18T14:33:05;9.10;99.90
5346;DHT22;2695;49.444;11.054;2023-11-18T14:35:34;9.00;99.90
5346;DHT22;2695;49.444;11.054;2023-11-18T14:38:02;9.00;99.90
5346;DHT22;2695;49.444;11.054;2023-11-18T14:40:32;9.00;99.90
5346;DHT22;2695;49.444;11.054;2023-11-18T14:43:01;9.00;99.90
5346;DHT22;2695;49.444;11.054;2023-11-18T14:45:29;9.00;99.90
5346;DHT22;2695;49.444;11.054;2023-11-18T14:47:57;9.00;99.90
5346;DHT22;2695;49.444;11.054;2023-11-18T14:50:27;9.00;99.90
5346;DHT22;2695;49.444;11.054;2023-11-18T14:52:55;9.00;99.90
5346;DHT22;2695;49.444;11.054;2023-11-18T14:55:27;9.00;99.90
5346;DHT22;2695;49.444;11.054;2023-11-18T14:57:56;9.20;99.90
5346;DHT22;2695;49.444;11.054;2023-11-18T15:00:24;9.00;99.90
5346;DHT22;2695;49.444;11.054;2023-11-18T15:02:54;9.10;99.90
5346;DHT22;2695;49.444;11.054;2023-11-18T15:05:27;9.20;99.90
5346;DHT22;2695;49.444;11.054;2023-11-18T15:07:56;8.90;99.90
5346;DHT22;2695;49.444;11.054;2023-11-18T15:10:27;8.90;99.90
5346;DHT22;2695;49.444;11.054;2023-11-18T15:12:56;9.30;99.90
5346;DHT22;2695;49.444;11.054;2023-11-18T15:15:26;8.80;99.90
5346;DHT22;2695;49.444;11.054;2023-11-18T15:18:00;8.70;99.90
5346;DHT22;2695;49.444;11.054;2023-11-18T15:20:32;8.60;99.90
5346;DHT22;2695;49.444;11.054;2023-11-18T15:23:01;8.60;99.90
5346;DHT22;2695;49.444;11.054;2023-11-18T15:25:29;8.60;99.90
5346;DHT22;2695;49.444;11.054;2023-11-18T15:27:57;8.50;99.90
5346;DHT22;2695;49.444;11.054;2023-11-18T15:30:25;8.50;99.90
5346;DHT22;2695;49.444;11.054;2023-11-18T15:32:54;8.50;99.90
5346;DHT22;2695;49.444;11.054;2023-11-18T15:35:23;8.50;99.90
5346;DHT22;2695;49.444;11.054;2023-11-18T15:37:53;8.60;99.90
5346;DHT22;2695;49.444;11.054;2023-11-18T15:40:21;8.50;99.90
5346;DHT22;2695;49.444;11.054;2023-11-18T15:42:52;8.50;99.90
5346;DHT22;2695;49.444;11.054;2023-11-18T15:45:22;8.60;99.90
5346;DHT22;2695;49.444;11.054;2023-11-18T15:47:51;8.50;99.90
5346;DHT22;2695;49.444;11.054;2023-11-18T15:50:20;8.50;99.90
5346;DHT22;2695;49.444;11.054;2023-11-18T15:52:49;8.50;99.90
5346;DHT22;2695;49.444;11.054;2023-11-18T15:55:21;8.50;99.90
5346;DHT22;2695;49.444;11.054;2023-11-18T15:57:52;8.50;99.90
5346;DHT22;2695;49.444;11.054;2023-11-18T16:00:21;8.40;99.90
5346;DHT22;2695;49.444;11.054;2023-11-18T16:02:52;8.40;99.90
5346;DHT22;2695;49.444;11.054;2023-11-18T16:05:28;8.50;99.90
5346;DHT22;2695;49.444;11.054;2023-11-18T16:08:02;8.50;99.90
5346;DHT22;2695;49.444;11.054;2023-11-18T16:10:36;8.50;99.90
5346;DHT22;2695;49.444;11.054;2023-11-18T16:13:04;8.50;99.90
5346;DHT22;2695;49.444;11.054;2023-11-18T16:15:33;8.50;99.90
5346;DHT22;2695;49.444;11.054;2023-11-18T16:18:02;8.40;99.90
5346;DHT22;2695;49.444;11.054;2023-11-18T16:20:32;8.40;99.90